Anacostia, District of Columbia
Current Conditions -  °F | °C
As of 8:52 PM on Friday 31 Oct 2014 (Local Time) from KDCA Reporting Station
Broken Clouds Broken Clouds  
Wind Chill: 54°   Ceiling: 5500
Heat Index: 54°   Visibility: 10mi
Dew Point: 34°   Wind: 8mph
Humidity: 47%   Direction: 40°NE
Pressure: 29.86"   Gusts: NA
Location:  38.8618°N, 77.0026°W
Report Text: KDCA 010052Z 04007KT 10SM BKN055 12/01 A2986 RMK AO2 SLP111 T01220011
Loading
Personal Weather Stations






























Interactive Weather Map
Tropical Storm Tracking
New forecast layout! Learn more

10-Day Weather Forecast

Advertisements
Track Severe Weather on mobile